This is the latest recevied weather packets stored in our database for station/object HS1AXC-1. If no packets are shown the sender has not sent any weather packets the latest 10 day(s).
| Time | Temp. | Humidity | Pressure | Rain* | Wind** | Luminosity | Snow |
|---|---|---|---|---|---|---|---|
| 1777788195 | 37.78° C | 54% | 1008 hPa | - | - | 0 W/m² | - |
| 1777787573 | 38.33° C | 54% | 1008 hPa | - | - | 0 W/m² | - |
| 1777786951 | 38.89° C | 53% | 1008 hPa | - | - | 0 W/m² | - |
| 1777786329 | 38.89° C | 54% | 1009 hPa | - | - | 0 W/m² | - |
| 1777785707 | 39.44° C | 50% | 1009 hPa | - | - | 1 W/m² | - |
| 1777785085 | 39.44° C | 50% | 1009 hPa | - | - | 3 W/m² | - |
| 1777784463 | 38.89° C | 51% | 1009 hPa | - | - | 3 W/m² | - |
| 1777783841 | 38.33° C | 53% | 1009 hPa | - | - | 1 W/m² | - |
| 1777783219 | 37.78° C | 54% | 1010 hPa | - | - | 1 W/m² | - |
| 1777782597 | 38.33° C | 54% | 1010 hPa | - | - | 1 W/m² | - |
| 1777781768 | 38.89° C | 53% | 1010 hPa | - | - | 2 W/m² | - |
| 1777781146 | 37.78° C | 55% | 1010 hPa | - | - | 1 W/m² | - |
| 1777780524 | 38.33° C | 54% | 1010 hPa | - | - | 2 W/m² | - |
| 1777779902 | 37.78° C | 55% | 1010 hPa | - | - | 1 W/m² | - |
| 1777779280 | 37.22° C | 57% | 1011 hPa | - | - | 2 W/m² | - |
| 1777778658 | 38.33° C | 56% | 1011 hPa | - | - | 2 W/m² | - |
| 1777778036 | 38.33° C | 55% | 1011 hPa | - | - | 2 W/m² | - |
| 1777777414 | 37.78° C | 56% | 1011 hPa | - | - | 1 W/m² | - |
| 1777776792 | 37.22° C | 60% | 1011 hPa | - | - | 2 W/m² | - |
| 1777776170 | 37.22° C | 61% | 1011 hPa | - | - | 1 W/m² | - |
| 1777775548 | 37.22° C | 62% | 1011 hPa | - | - | 2 W/m² | - |
| 1777774926 | 36.67° C | 63% | 1011 hPa | - | - | 2 W/m² | - |
| 1777774303 | 36.11° C | 63% | 1011 hPa | - | - | 2 W/m² | - |
| 1777773681 | 36.11° C | 64% | 1011 hPa | - | - | 2 W/m² | - |
| 1777773059 | 36.11° C | 65% | 1011 hPa | - | - | 1 W/m² | - |
* Rain since midnight (hover to see other rain measurements)
** Current wind speed in m/s (hover to see current wind gust speed)